createdAt,value
2024-04-18T00:03:05.916Z,8.48
2024-04-18T00:08:08.255Z,12.27
2024-04-18T00:13:11.087Z,8.50
2024-04-18T00:18:13.517Z,10.40
2024-04-18T00:23:15.937Z,8.38
2024-04-18T00:28:18.319Z,10.77
2024-04-18T00:33:20.632Z,8.43
2024-04-18T00:38:22.966Z,10.27
2024-04-18T00:43:25.330Z,6.57
2024-04-18T00:48:30.783Z,7.35
2024-04-18T00:53:34.022Z,8.45
2024-04-18T00:58:36.367Z,9.13
2024-04-18T01:03:38.741Z,10.40
2024-04-18T01:08:41.296Z,9.48
2024-04-18T01:13:43.775Z,8.70
2024-04-18T01:18:46.172Z,8.43
2024-04-18T01:23:48.502Z,6.93
2024-04-18T01:28:50.978Z,7.25
2024-04-18T01:33:53.364Z,7.90
2024-04-18T01:38:55.851Z,11.88
2024-04-18T01:43:58.372Z,11.45
2024-04-18T01:49:00.814Z,6.45
2024-04-18T01:54:03.216Z,6.88
2024-04-18T01:59:05.779Z,7.30
2024-04-18T02:04:08.266Z,8.23
2024-04-18T02:09:10.700Z,8.30
2024-04-18T02:14:14.189Z,11.07
2024-04-18T02:19:16.540Z,8.80
2024-04-18T02:24:18.945Z,11.13
2024-04-18T02:29:21.460Z,12.00
2024-04-18T02:34:23.816Z,8.00
2024-04-18T02:39:26.719Z,9.48
2024-04-18T02:44:29.079Z,9.55
2024-04-18T02:49:31.400Z,8.88
2024-04-18T02:54:33.782Z,11.48
2024-04-18T02:59:36.138Z,14.52
2024-04-18T03:04:38.523Z,12.13
2024-04-18T03:09:40.946Z,14.93
2024-04-18T03:14:43.932Z,14.10
2024-04-18T03:19:46.244Z,14.18
2024-04-18T03:24:48.637Z,12.43
2024-04-18T03:29:51.039Z,13.52
2024-04-18T03:34:53.616Z,16.15
2024-04-18T03:39:57.479Z,13.60
2024-04-18T03:45:00.868Z,14.00
2024-04-18T03:50:03.480Z,13.95
2024-04-18T03:55:05.967Z,17.05
2024-04-18T04:00:08.902Z,19.40
2024-04-18T04:05:11.294Z,20.15
2024-04-18T04:10:13.633Z,16.63
2024-04-18T04:15:16.088Z,18.65
2024-04-18T04:20:19.031Z,18.55
2024-04-18T04:25:23.383Z,21.98
2024-04-18T04:30:25.735Z,19.15
2024-04-18T04:35:28.085Z,19.52
2024-04-18T04:40:30.371Z,17.95
2024-04-18T04:45:32.696Z,22.10
2024-04-18T04:50:35.098Z,17.45
2024-04-18T04:55:37.438Z,16.80
2024-04-18T05:00:39.787Z,17.02
2024-04-18T05:05:45.801Z,18.92
2024-04-18T05:10:48.252Z,19.05
2024-04-18T05:15:50.998Z,18.92
2024-04-18T05:20:53.356Z,19.55
2024-04-18T05:25:55.704Z,19.35
2024-04-18T05:31:04.946Z,16.15
2024-04-18T05:36:07.735Z,16.77
2024-04-18T05:41:10.139Z,17.70
2024-04-18T05:46:12.698Z,20.05
2024-04-18T05:51:15.461Z,14.60
2024-04-18T05:56:17.828Z,19.27
2024-04-18T06:01:20.577Z,16.67
2024-04-18T06:06:23.105Z,14.88
2024-04-18T06:11:37.568Z,13.88
2024-04-18T06:16:40.151Z,15.93
2024-04-18T06:21:42.604Z,15.82
2024-04-18T06:26:45.160Z,15.57
2024-04-18T06:31:47.591Z,15.13
2024-04-18T06:36:50.020Z,11.57
2024-04-18T06:41:53.856Z,12.98
2024-04-18T06:47:01.782Z,17.20
2024-04-18T06:52:05.139Z,14.80
2024-04-18T06:57:07.491Z,17.38
2024-04-18T07:02:09.842Z,16.55
2024-04-18T07:07:12.208Z,12.00
2024-04-18T07:12:14.610Z,13.73
2024-04-18T07:17:16.961Z,15.13
2024-04-18T07:22:19.320Z,13.55
2024-04-18T07:27:21.852Z,12.95
2024-04-18T07:32:24.360Z,13.85
2024-04-18T07:37:28.985Z,12.63
2024-04-18T07:42:32.851Z,9.05
2024-04-18T07:47:35.368Z,9.18
2024-04-18T07:52:38.250Z,10.38
2024-04-18T07:57:41.646Z,10.20
2024-04-18T08:02:46.760Z,7.32
2024-04-18T08:07:53.163Z,7.60
2024-04-18T08:13:02.535Z,4.90
2024-04-18T08:18:08.248Z,5.65
2024-04-18T08:23:11.283Z,8.13
2024-04-18T08:28:13.825Z,7.75
2024-04-18T08:33:16.272Z,9.00
2024-04-18T08:38:18.826Z,5.50
2024-04-18T08:43:21.163Z,5.68
2024-04-18T08:48:28.188Z,6.68
2024-04-18T08:53:30.638Z,4.90
2024-04-18T08:58:33.047Z,5.03
2024-04-18T09:03:35.605Z,6.28
2024-04-18T09:08:40.899Z,3.50
2024-04-18T09:13:43.244Z,2.63
2024-04-18T09:18:46.254Z,3.75
2024-04-18T09:23:48.630Z,5.20
2024-04-18T09:28:51.057Z,6.72
2024-04-18T09:33:53.614Z,9.05
2024-04-18T09:39:01.258Z,2.78
2024-04-18T09:44:21.632Z,5.25
2024-04-18T09:49:25.173Z,6.07
2024-04-18T09:54:27.643Z,9.07
2024-04-18T09:59:32.327Z,8.10
2024-04-18T10:04:35.783Z,5.40
2024-04-18T10:09:39.983Z,7.57
2024-04-18T10:14:43.470Z,6.05
2024-04-18T10:19:46.831Z,3.17
2024-04-18T10:24:52.596Z,3.83
2024-04-18T10:29:57.219Z,5.00
2024-04-18T10:35:03.867Z,4.97
2024-04-18T10:40:07.922Z,2.65
2024-04-18T10:45:10.465Z,5.05
2024-04-18T10:50:12.867Z,6.05
2024-04-18T10:55:15.189Z,3.20
2024-04-18T11:00:17.894Z,5.60
2024-04-18T11:05:20.277Z,5.25
2024-04-18T11:10:27.927Z,4.38
2024-04-18T11:15:31.665Z,3.83
2024-04-18T11:20:35.343Z,3.13
2024-04-18T11:25:40.833Z,3.78
2024-04-18T11:30:44.439Z,2.72
2024-04-18T11:35:46.840Z,7.18
2024-04-18T11:40:49.198Z,4.10
2024-04-18T11:45:51.531Z,2.75
2024-04-18T11:50:54.136Z,4.35
2024-04-18T11:55:58.171Z,3.85
2024-04-18T12:01:01.089Z,5.93
2024-04-18T12:06:03.511Z,5.47
2024-04-18T12:11:06.538Z,3.28
2024-04-18T12:16:08.902Z,4.38
2024-04-18T12:21:11.295Z,6.43
2024-04-18T12:26:14.577Z,7.18
2024-04-18T12:31:17.643Z,6.32
2024-04-18T12:36:22.424Z,15.93
2024-04-18T12:41:24.846Z,6.65
2024-04-18T12:46:28.385Z,6.07
2024-04-18T12:51:31.306Z,3.90
2024-04-18T12:56:33.936Z,3.47
2024-04-18T13:01:36.362Z,8.30
2024-04-18T13:06:39.201Z,4.80
2024-04-18T13:11:41.633Z,8.57
2024-04-18T13:16:44.089Z,5.07
2024-04-18T13:21:46.549Z,3.47
2024-04-18T13:26:49.376Z,3.67
2024-04-18T13:31:53.303Z,2.47
2024-04-18T13:36:55.685Z,4.05
2024-04-18T13:41:57.976Z,6.35
2024-04-18T13:47:00.485Z,5.07
2024-04-18T13:52:03.081Z,4.90
2024-04-18T13:57:05.680Z,4.15
2024-04-18T14:02:10.182Z,3.50
2024-04-18T14:07:12.886Z,2.15
2024-04-18T14:12:15.542Z,5.35
2024-04-18T14:17:36.651Z,2.80
2024-04-18T14:22:38.953Z,3.67
2024-04-18T14:27:41.446Z,4.25
2024-04-18T14:32:43.935Z,3.80
2024-04-18T14:37:46.512Z,3.40
2024-04-18T14:42:49.639Z,1.70
2024-04-18T14:47:52.665Z,4.55
2024-04-18T14:52:55.337Z,2.25
2024-04-18T14:57:57.674Z,2.78
2024-04-18T15:03:00.207Z,4.85
2024-04-18T15:08:02.679Z,1.83
2024-04-18T15:13:05.215Z,1.73
2024-04-18T15:18:07.716Z,2.30
2024-04-18T15:23:11.510Z,5.63
2024-04-18T15:28:13.912Z,8.45
2024-04-18T15:33:16.362Z,3.60
2024-04-18T15:38:18.703Z,2.40
2024-04-18T15:43:21.195Z,5.80
2024-04-18T15:48:23.891Z,3.75
2024-04-18T15:53:26.402Z,5.75
2024-04-18T15:58:28.761Z,4.95
2024-04-18T16:03:31.638Z,4.18
2024-04-18T16:08:34.105Z,3.88
2024-04-18T16:13:36.466Z,4.88
2024-04-18T16:18:39.755Z,4.20
2024-04-18T16:23:42.219Z,6.30
2024-04-18T16:28:46.211Z,4.47
2024-04-18T16:33:48.737Z,3.22
2024-04-18T16:38:51.277Z,4.03
2024-04-18T16:43:53.623Z,8.13
2024-04-18T16:48:56.395Z,5.25
2024-04-18T16:53:59.081Z,3.67
2024-04-18T16:59:04.019Z,5.90
2024-04-18T17:04:06.509Z,5.80
2024-04-18T17:09:08.955Z,3.60
2024-04-18T17:14:11.314Z,8.10
2024-04-18T17:19:13.715Z,8.90
2024-04-18T17:24:16.370Z,5.05
2024-04-18T17:29:18.781Z,2.75
2024-04-18T17:34:21.241Z,4.72
2024-04-18T17:39:23.711Z,5.85
2024-04-18T17:44:26.151Z,3.67
2024-04-18T17:49:28.698Z,4.85
2024-04-18T17:54:31.132Z,3.90
2024-04-18T17:59:33.568Z,6.50
2024-04-18T18:04:36.243Z,6.65
2024-04-18T18:09:43.016Z,5.15
2024-04-18T18:14:45.502Z,8.32
2024-04-18T18:19:47.945Z,6.10
2024-04-18T18:24:50.474Z,13.73
2024-04-18T18:29:53.963Z,7.30
2024-04-18T18:34:56.525Z,5.72
2024-04-18T18:39:58.843Z,7.03
2024-04-18T18:45:01.325Z,4.32
2024-04-18T18:50:04.332Z,9.05
2024-04-18T18:55:07.054Z,3.25
2024-04-18T19:00:09.837Z,7.47
2024-04-18T19:05:12.178Z,8.60
2024-04-18T19:10:14.658Z,9.32
2024-04-18T19:15:18.945Z,9.20
2024-04-18T19:20:21.366Z,4.65
2024-04-18T19:25:23.903Z,4.25
2024-04-18T19:30:26.659Z,4.47
2024-04-18T19:35:29.095Z,14.32
2024-04-18T19:40:31.481Z,6.05
2024-04-18T19:45:34.020Z,6.82
2024-04-18T19:50:38.165Z,8.70
2024-04-18T19:55:40.566Z,13.93
2024-04-18T20:00:43.267Z,12.80
2024-04-18T20:05:45.663Z,5.38
2024-04-18T20:10:50.881Z,4.85
2024-04-18T20:15:53.294Z,6.13
2024-04-18T20:20:55.645Z,8.55
2024-04-18T20:25:57.974Z,10.20
2024-04-18T20:31:00.362Z,8.55
2024-04-18T20:36:02.751Z,6.13
2024-04-18T20:41:05.168Z,8.30
2024-04-18T20:46:07.495Z,6.13
2024-04-18T20:51:09.874Z,7.47
2024-04-18T20:56:12.358Z,5.18
2024-04-18T21:01:14.779Z,4.78
2024-04-18T21:06:17.334Z,6.93
2024-04-18T21:11:19.762Z,4.82
2024-04-18T21:16:22.258Z,6.38
2024-04-18T21:21:24.716Z,8.60
2024-04-18T21:26:27.124Z,12.70
2024-04-18T21:31:29.586Z,4.57
2024-04-18T21:36:31.958Z,5.38
2024-04-18T21:41:39.274Z,4.53
2024-04-18T21:46:41.745Z,7.57
2024-04-18T21:51:44.169Z,10.65
2024-04-18T21:56:46.549Z,5.63
2024-04-18T22:01:48.878Z,8.98
2024-04-18T22:06:51.277Z,7.50
2024-04-18T22:11:53.681Z,7.25
2024-04-18T22:16:56.026Z,7.20
2024-04-18T22:21:58.359Z,7.63
2024-04-18T22:27:00.690Z,9.02
2024-04-18T22:32:03.067Z,6.75
2024-04-18T22:37:05.664Z,7.38
2024-04-18T22:42:07.996Z,6.30
2024-04-18T22:47:13.315Z,6.57
2024-04-18T22:52:15.763Z,7.32
2024-04-18T22:57:21.139Z,8.20
2024-04-18T23:02:23.523Z,6.57
2024-04-18T23:07:25.962Z,9.13
2024-04-18T23:12:28.361Z,8.02
2024-04-18T23:17:31.173Z,4.75
2024-04-18T23:22:33.532Z,4.82
2024-04-18T23:27:35.935Z,8.52
2024-04-18T23:32:38.428Z,6.78
2024-04-18T23:37:40.841Z,10.30
2024-04-18T23:42:43.323Z,9.38
2024-04-18T23:47:45.771Z,7.28
2024-04-18T23:52:48.195Z,6.00
2024-04-18T23:57:50.539Z,6.80
